Time;durP1;ratioP1;P1;durP2;ratioP2;P2;SDS_P1;SDS_P2;PMS_P1;PMS_P2;Temp;Humidity;BMP_temperature;BMP_pressure;BME280_temperature;BME280_humidity;BME280_pressure;Samples;Min_cycle;Max_cycle;Signal;HPM_P1;HPM_P2
2021/06/16 00:00:48;;;;;;;0.53;0.30;;;;;;;;;;5049041;28;20294;-64
2021/06/16 00:03:16;;;;;;;1.80;1.67;;;;;;;;;;5048874;28;20191;-65
2021/06/16 00:05:43;;;;;;;9.13;0.93;;;;;;;;;;5044345;28;20183;-68
2021/06/16 00:08:10;;;;;;;4.70;1.30;;;;;;;;;;5047493;28;20239;-66
2021/06/16 00:10:37;;;;;;;0.00;0.00;;;;;;;;;;5043800;28;20561;-65
2021/06/16 00:13:04;;;;;;;9.80;1.70;;;;;;;;;;5041036;28;20193;-64
2021/06/16 00:15:33;;;;;;;1.67;0.50;;;;;;;;;;5020916;28;20202;-64
2021/06/16 00:18:01;;;;;;;11.80;2.40;;;;;;;;;;5044686;28;20194;-64
2021/06/16 00:20:27;;;;;;;2.70;0.70;;;;;;;;;;5038811;28;20180;-64
2021/06/16 00:22:56;;;;;;;1.87;0.63;;;;;;;;;;5040105;28;20412;-65
2021/06/16 00:25:23;;;;;;;17.57;2.20;;;;;;;;;;5042651;28;20564;-64
2021/06/16 00:27:50;;;;;;;0.10;0.10;;;;;;;;;;5047394;28;20688;-64
2021/06/16 00:30:17;;;;;;;6.60;1.17;;;;;;;;;;5055730;28;20544;-64
2021/06/16 00:32:45;;;;;;;3.73;3.10;;;;;;;;;;5054489;28;20728;-64
2021/06/16 00:35:16;;;;;;;0.00;0.00;;;;;;;;;;5051420;28;20194;-64
2021/06/16 00:37:44;;;;;;;0.87;0.87;;;;;;;;;;5041002;28;20235;-64
2021/06/16 00:40:13;;;;;;;5.43;0.73;;;;;;;;;;5044187;28;20195;-65
2021/06/16 00:42:39;;;;;;;0.03;0.03;;;;;;;;;;5040904;28;20190;-64
2021/06/16 00:45:06;;;;;;;3.80;2.27;;;;;;;;;;5043077;28;20599;-64
2021/06/16 00:47:33;;;;;;;5.60;2.50;;;;;;;;;;5022699;28;20636;-65
2021/06/16 00:50:01;;;;;;;0.57;0.30;;;;;;;;;;5038351;28;20184;-64
2021/06/16 00:52:28;;;;;;;3.17;1.83;;;;;;;;;;5041302;28;20178;-65
2021/06/16 00:54:54;;;;;;;2.20;0.83;;;;;;;;;;5043499;28;20285;-64
2021/06/16 00:57:22;;;;;;;1.30;0.87;;;;;;;;;;5054657;28;20183;-65
2021/06/16 00:59:56;;;;;;;0.10;0.10;;;;;;;;;;5052741;28;20190;-65
2021/06/16 01:02:24;;;;;;;18.47;3.53;;;;;;;;;;5051209;28;20794;-65
2021/06/16 01:04:54;;;;;;;0.77;0.77;;;;;;;;;;5020596;28;20393;-65
2021/06/16 01:07:22;;;;;;;0.50;0.50;;;;;;;;;;5058309;28;20242;-65
2021/06/16 01:10:08;;;;;;;1.37;0.53;;;;;;;;;;5033477;28;20272;-64
2021/06/16 01:12:53;;;;;;;0.00;0.00;;;;;;;;;;5055575;28;20981;-65
2021/06/16 01:15:22;;;;;;;7.43;0.37;;;;;;;;;;5047233;28;20285;-64
2021/06/16 01:17:50;;;;;;;4.03;1.80;;;;;;;;;;5052441;28;20198;-64
2021/06/16 01:20:35;;;;;;;1.73;0.67;;;;;;;;;;5054110;28;20274;-64
2021/06/16 01:23:11;;;;;;;11.20;1.70;;;;;;;;;;5043734;28;20664;-65
2021/06/16 01:25:50;;;;;;;0.10;0.10;;;;;;;;;;5049633;28;20187;-65
2021/06/16 01:28:17;;;;;;;0.00;0.00;;;;;;;;;;5052194;28;20257;-64
2021/06/16 01:30:44;;;;;;;0.00;0.00;;;;;;;;;;5049485;28;20219;-65
2021/06/16 01:33:12;;;;;;;10.00;2.37;;;;;;;;;;5053193;28;20293;-65
2021/06/16 01:35:40;;;;;;;11.43;1.47;;;;;;;;;;5051250;28;20180;-64
2021/06/16 01:38:07;;;;;;;0.10;0.10;;;;;;;;;;5047323;28;20490;-65
2021/06/16 01:40:33;;;;;;;0.10;0.10;;;;;;;;;;5049775;28;20475;-64
2021/06/16 01:43:01;;;;;;;0.00;0.00;;;;;;;;;;5050226;28;20211;-65
2021/06/16 01:45:29;;;;;;;0.00;0.00;;;;;;;;;;5042660;28;20190;-64
2021/06/16 01:47:59;;;;;;;0.27;0.10;;;;;;;;;;5049690;28;20620;-65
2021/06/16 01:50:26;;;;;;;0.00;0.00;;;;;;;;;;5053323;28;20400;-65
2021/06/16 01:52:57;;;;;;;0.00;0.00;;;;;;;;;;5052715;28;20815;-64
2021/06/16 01:55:25;;;;;;;3.17;1.43;;;;;;;;;;5054317;28;20865;-65
2021/06/16 01:57:56;;;;;;;7.23;3.70;;;;;;;;;;5037715;28;20239;-66
2021/06/16 02:00:24;;;;;;;3.30;3.00;;;;;;;;;;5058038;28;20174;-64
2021/06/16 02:02:51;;;;;;;2.57;2.47;;;;;;;;;;5040708;28;20911;-65
2021/06/16 02:05:19;;;;;;;9.80;3.30;;;;;;;;;;5055524;28;20684;-65
2021/06/16 02:07:51;;;;;;;5.77;5.40;;;;;;;;;;5037979;28;20246;-64
2021/06/16 02:10:20;;;;;;;13.27;5.67;;;;;;;;;;5059945;28;20799;-64
2021/06/16 02:12:49;;;;;;;2.43;0.70;;;;;;;;;;5056129;28;20541;-64
2021/06/16 02:15:17;;;;;;;0.10;0.10;;;;;;;;;;5054529;28;20194;-64
2021/06/16 02:17:55;;;;;;;6.90;1.90;;;;;;;;;;5058099;28;20269;-64
2021/06/16 02:20:23;;;;;;;1.80;0.53;;;;;;;;;;5055396;28;20194;-64
2021/06/16 02:22:50;;;;;;;0.23;0.20;;;;;;;;;;5057390;28;20710;-64
2021/06/16 02:25:17;;;;;;;1.70;0.60;;;;;;;;;;5047736;28;20182;-64
2021/06/16 02:27:44;;;;;;;0.20;0.20;;;;;;;;;;5044148;28;20210;-64
2021/06/16 02:30:11;;;;;;;3.27;0.60;;;;;;;;;;5054822;28;20187;-64
2021/06/16 02:32:37;;;;;;;0.00;0.00;;;;;;;;;;5049765;28;20190;-64
2021/06/16 02:35:05;;;;;;;0.00;0.00;;;;;;;;;;5053154;28;20182;-64
2021/06/16 02:37:32;;;;;;;0.00;0.00;;;;;;;;;;5060569;28;20331;-64
2021/06/16 02:40:02;;;;;;;0.00;0.00;;;;;;;;;;5054285;28;20293;-64
2021/06/16 02:42:29;;;;;;;11.90;1.63;;;;;;;;;;5060403;28;20275;-64
2021/06/16 02:44:56;;;;;;;2.93;0.57;;;;;;;;;;5056844;28;20644;-64
2021/06/16 02:47:23;;;;;;;0.93;0.93;;;;;;;;;;5051162;28;20481;-64
2021/06/16 02:49:51;;;;;;;6.33;0.30;;;;;;;;;;5035021;28;20231;-65
2021/06/16 02:52:20;;;;;;;17.53;3.40;;;;;;;;;;5053859;28;20186;-64
2021/06/16 02:54:50;;;;;;;2.37;1.57;;;;;;;;;;5054017;28;20180;-64
2021/06/16 02:57:19;;;;;;;1.53;0.63;;;;;;;;;;5054693;28;20369;-64
2021/06/16 02:59:48;;;;;;;0.00;0.00;;;;;;;;;;5050792;28;20591;-64
2021/06/16 03:02:17;;;;;;;0.20;0.20;;;;;;;;;;5051030;28;20179;-64
2021/06/16 03:04:48;;;;;;;0.20;0.20;;;;;;;;;;5055098;28;20190;-64
2021/06/16 03:07:17;;;;;;;2.10;1.57;;;;;;;;;;5053560;28;20202;-64
2021/06/16 03:09:47;;;;;;;0.00;0.00;;;;;;;;;;5048047;28;20264;-64
2021/06/16 03:12:15;;;;;;;0.00;0.00;;;;;;;;;;5055052;28;20195;-64
2021/06/16 03:14:42;;;;;;;3.60;3.27;;;;;;;;;;5054014;28;20657;-65
2021/06/16 03:17:10;;;;;;;9.73;1.03;;;;;;;;;;5052925;28;20179;-65
2021/06/16 03:19:38;;;;;;;0.00;0.00;;;;;;;;;;5057756;28;20285;-65
2021/06/16 03:22:05;;;;;;;0.30;0.30;;;;;;;;;;5055105;28;20515;-65
2021/06/16 03:24:31;;;;;;;5.73;2.00;;;;;;;;;;5052757;28;20679;-64
2021/06/16 03:26:58;;;;;;;2.37;0.67;;;;;;;;;;5046292;28;20201;-64
2021/06/16 03:29:25;;;;;;;0.30;0.20;;;;;;;;;;5055892;28;20199;-65
2021/06/16 03:31:52;;;;;;;13.70;3.33;;;;;;;;;;5045082;28;20329;-64
2021/06/16 03:34:18;;;;;;;2.63;0.83;;;;;;;;;;5049050;28;20180;-67
2021/06/16 03:36:48;;;;;;;14.00;1.60;;;;;;;;;;5035868;28;20195;-64
2021/06/16 03:39:15;;;;;;;0.17;0.03;;;;;;;;;;5054698;28;20187;-66
2021/06/16 03:41:42;;;;;;;8.10;4.60;;;;;;;;;;5046597;28;20183;-64
2021/06/16 03:44:08;;;;;;;2.07;1.80;;;;;;;;;;5048399;28;20187;-64
2021/06/16 03:46:36;;;;;;;0.00;0.00;;;;;;;;;;5049374;28;20244;-65
2021/06/16 03:49:07;;;;;;;0.17;0.17;;;;;;;;;;5042365;28;20247;-64
2021/06/16 03:51:34;;;;;;;8.10;2.23;;;;;;;;;;5048851;28;20184;-65
2021/06/16 03:54:01;;;;;;;2.10;0.93;;;;;;;;;;5048330;28;20678;-65
2021/06/16 03:56:28;;;;;;;6.03;1.33;;;;;;;;;;5040731;28;20179;-64
2021/06/16 03:58:55;;;;;;;4.97;2.47;;;;;;;;;;5051035;28;20375;-64
2021/06/16 04:01:22;;;;;;;0.63;0.63;;;;;;;;;;5049173;28;20198;-64
2021/06/16 04:03:49;;;;;;;6.03;4.23;;;;;;;;;;5044178;28;20190;-65
2021/06/16 04:06:16;;;;;;;0.10;0.10;;;;;;;;;;5044194;28;20601;-65
2021/06/16 04:08:46;;;;;;;0.20;0.20;;;;;;;;;;5048488;28;20227;-65
2021/06/16 04:11:13;;;;;;;9.63;2.10;;;;;;;;;;5057302;28;20189;-64
2021/06/16 04:13:40;;;;;;;13.57;2.37;;;;;;;;;;5052428;28;20194;-65
2021/06/16 04:16:07;;;;;;;5.53;1.40;;;;;;;;;;5054887;28;20221;-65
2021/06/16 04:18:34;;;;;;;29.80;2.50;;;;;;;;;;5051237;28;20799;-65
2021/06/16 04:21:01;;;;;;;0.00;0.00;;;;;;;;;;5051573;28;20187;-64
2021/06/16 04:23:29;;;;;;;0.00;0.00;;;;;;;;;;5052531;28;20494;-64
2021/06/16 04:25:56;;;;;;;0.07;0.07;;;;;;;;;;5056104;28;20637;-64
2021/06/16 04:28:23;;;;;;;23.87;1.70;;;;;;;;;;5051167;28;20206;-65
2021/06/16 04:30:49;;;;;;;0.00;0.00;;;;;;;;;;5055887;28;20415;-64
2021/06/16 04:33:16;;;;;;;0.10;0.10;;;;;;;;;;5065115;28;20903;-64
2021/06/16 04:35:42;;;;;;;1.40;1.30;;;;;;;;;;5045531;28;20365;-64
2021/06/16 04:38:09;;;;;;;24.27;4.27;;;;;;;;;;5045872;28;20281;-64
2021/06/16 04:40:36;;;;;;;0.10;0.10;;;;;;;;;;5053194;28;20202;-64
2021/06/16 04:43:02;;;;;;;0.00;0.00;;;;;;;;;;5048554;28;20776;-64
2021/06/16 04:45:29;;;;;;;0.93;0.87;;;;;;;;;;5035766;28;20694;-64
2021/06/16 04:47:56;;;;;;;0.00;0.00;;;;;;;;;;5053330;28;20204;-64
2021/06/16 04:50:22;;;;;;;12.53;4.10;;;;;;;;;;5048835;28;20322;-65
2021/06/16 04:52:49;;;;;;;2.10;0.60;;;;;;;;;;5053232;28;20644;-65
2021/06/16 04:55:15;;;;;;;4.07;2.17;;;;;;;;;;5049445;28;21117;-65
2021/06/16 04:57:42;;;;;;;0.60;0.60;;;;;;;;;;5051084;28;20329;-66
2021/06/16 05:00:10;;;;;;;4.90;1.10;;;;;;;;;;5054285;28;20182;-64
2021/06/16 05:02:37;;;;;;;0.80;0.80;;;;;;;;;;5053407;28;20196;-64
2021/06/16 05:05:04;;;;;;;5.40;0.50;;;;;;;;;;5053977;28;20211;-64
2021/06/16 05:07:30;;;;;;;4.00;1.67;;;;;;;;;;5050588;28;20253;-64
2021/06/16 05:09:57;;;;;;;0.23;0.23;;;;;;;;;;5050112;28;20214;-65
2021/06/16 05:12:23;;;;;;;2.00;1.30;;;;;;;;;;5052801;28;20277;-65
2021/06/16 05:14:50;;;;;;;1.67;0.80;;;;;;;;;;5052279;28;20183;-64
2021/06/16 05:17:17;;;;;;;1.47;1.37;;;;;;;;;;5047495;28;20645;-65
2021/06/16 05:19:47;;;;;;;1.47;1.43;;;;;;;;;;5045336;28;20659;-65
2021/06/16 05:22:15;;;;;;;3.07;2.83;;;;;;;;;;5051731;28;20309;-64
2021/06/16 05:24:43;;;;;;;0.00;0.00;;;;;;;;;;5033913;28;20191;-65
2021/06/16 05:27:09;;;;;;;0.00;0.00;;;;;;;;;;5054134;28;20175;-65
2021/06/16 05:29:36;;;;;;;0.40;0.40;;;;;;;;;;5054521;28;20198;-65
2021/06/16 05:32:02;;;;;;;0.00;0.00;;;;;;;;;;5053804;28;20197;-65
2021/06/16 05:34:29;;;;;;;1.83;0.57;;;;;;;;;;5057700;28;20271;-66
2021/06/16 05:36:55;;;;;;;0.10;0.10;;;;;;;;;;5055638;28;20194;-65
2021/06/16 05:39:22;;;;;;;0.00;0.00;;;;;;;;;;5050927;28;20200;-66
2021/06/16 05:41:49;;;;;;;0.00;0.00;;;;;;;;;;5049891;28;20195;-65
2021/06/16 05:44:15;;;;;;;6.40;5.93;;;;;;;;;;5051118;28;20182;-64
2021/06/16 05:46:42;;;;;;;0.00;0.00;;;;;;;;;;5049706;28;20930;-64
2021/06/16 05:49:08;;;;;;;0.50;0.50;;;;;;;;;;5049659;28;20357;-65
2021/06/16 05:51:35;;;;;;;1.50;1.40;;;;;;;;;;5056675;28;20197;-64
2021/06/16 05:54:01;;;;;;;0.00;0.00;;;;;;;;;;5056462;28;20186;-64
2021/06/16 05:56:28;;;;;;;5.83;2.03;;;;;;;;;;5057415;28;20186;-65
2021/06/16 05:58:54;;;;;;;0.00;0.00;;;;;;;;;;5057046;28;20704;-65
2021/06/16 06:01:20;;;;;;;1.80;1.13;;;;;;;;;;5058898;28;20919;-65
2021/06/16 06:03:47;;;;;;;0.00;0.00;;;;;;;;;;5058251;28;20538;-65
2021/06/16 06:06:13;;;;;;;0.13;0.13;;;;;;;;;;5055951;28;20194;-65
2021/06/16 06:08:40;;;;;;;0.63;0.63;;;;;;;;;;5055041;28;20233;-65
2021/06/16 06:11:06;;;;;;;0.00;0.00;;;;;;;;;;5056861;28;20197;-64
2021/06/16 06:13:33;;;;;;;10.20;1.17;;;;;;;;;;5057865;28;20679;-64
2021/06/16 06:15:59;;;;;;;14.20;3.47;;;;;;;;;;5055926;28;20187;-65
2021/06/16 06:18:26;;;;;;;1.17;1.07;;;;;;;;;;5050755;28;21616;-64
2021/06/16 06:20:52;;;;;;;0.00;0.00;;;;;;;;;;5054329;28;20505;-64
2021/06/16 06:23:19;;;;;;;1.80;0.97;;;;;;;;;;5058014;28;20178;-64
2021/06/16 06:25:45;;;;;;;1.60;1.50;;;;;;;;;;5055710;28;20722;-64
2021/06/16 06:28:12;;;;;;;1.83;1.80;;;;;;;;;;5052350;28;20218;-64
2021/06/16 06:30:38;;;;;;;0.00;0.00;;;;;;;;;;5054879;28;20181;-64
2021/06/16 13:27:53;;;;;;;33.30;1.60;;;;;;;;;;5109176;27;20567;-68
2021/06/16 13:30:25;;;;;;;7.47;0.20;;;;;;;;;;5082833;28;20340;-69
2021/06/16 13:32:51;;;;;;;2.20;1.50;;;;;;;;;;5078324;28;20193;-69
2021/06/16 13:35:19;;;;;;;1.50;0.73;;;;;;;;;;5076005;28;20195;-69
2021/06/16 13:37:45;;;;;;;6.20;2.13;;;;;;;;;;5080540;28;20292;-69
2021/06/16 13:40:18;;;;;;;6.30;4.23;;;;;;;;;;5077689;28;20171;-69
2021/06/16 13:42:49;;;;;;;1.30;0.90;;;;;;;;;;5079584;28;20167;-69
2021/06/16 13:45:16;;;;;;;0.10;0.10;;;;;;;;;;5084598;28;20163;-68
2021/06/16 13:47:47;;;;;;;14.93;3.30;;;;;;;;;;5080821;28;20232;-68
2021/06/16 13:50:17;;;;;;;2.83;1.57;;;;;;;;;;5080111;28;20186;-68
2021/06/16 13:55:47;;;;;;;11.93;1.57;;;;;;;;;;5110414;28;20161;-69
2021/06/16 14:01:23;;;;;;;9.97;2.37;;;;;;;;;;5089251;28;20724;-69
2021/06/16 14:06:53;;;;;;;23.87;4.80;;;;;;;;;;5089526;28;20220;-68
2021/06/16 14:09:35;;;;;;;8.00;2.57;;;;;;;;;;5090182;28;20194;-68
2021/06/16 14:15:13;;;;;;;9.73;1.63;;;;;;;;;;5087102;28;20213;-68
2021/06/16 14:23:46;;;;;;;6.77;3.40;;;;;;;;;;5089732;28;20161;-68
2021/06/16 14:26:38;;;;;;;8.40;1.80;;;;;;;;;;5080292;28;20217;-69
2021/06/16 14:29:09;;;;;;;12.50;3.80;;;;;;;;;;5088258;28;20552;-67
2021/06/16 14:31:37;;;;;;;9.77;2.57;;;;;;;;;;5083833;28;20238;-69
2021/06/16 14:34:09;;;;;;;8.23;2.10;;;;;;;;;;5089328;28;20599;-67
2021/06/16 14:39:51;;;;;;;8.10;0.63;;;;;;;;;;5064174;28;20181;-68
2021/06/16 14:54:18;;;;;;;4.60;2.80;;;;;;;;;;5061826;28;20197;-70
2021/06/16 14:56:46;;;;;;;2.07;2.00;;;;;;;;;;5064981;28;20172;-68
2021/06/16 14:59:15;;;;;;;3.70;1.83;;;;;;;;;;5065634;28;20222;-67
2021/06/16 15:01:41;;;;;;;10.97;1.20;;;;;;;;;;5064092;28;20183;-68
2021/06/16 15:04:12;;;;;;;1.23;1.13;;;;;;;;;;5061320;28;20190;-67
2021/06/16 15:06:38;;;;;;;0.37;0.37;;;;;;;;;;5064972;28;20297;-67
2021/06/16 15:09:05;;;;;;;1.73;0.73;;;;;;;;;;5061747;28;20194;-67
2021/06/16 15:11:32;;;;;;;3.93;0.73;;;;;;;;;;5079041;28;20275;-68
2021/06/16 15:13:59;;;;;;;24.33;3.73;;;;;;;;;;5066797;28;20183;-67
2021/06/16 15:16:26;;;;;;;18.40;2.10;;;;;;;;;;5063930;28;20761;-67
2021/06/16 15:18:52;;;;;;;3.00;2.03;;;;;;;;;;5069231;28;20163;-67
2021/06/16 15:21:19;;;;;;;24.20;3.30;;;;;;;;;;5066666;28;20167;-68
2021/06/16 15:23:46;;;;;;;3.63;1.97;;;;;;;;;;5062092;28;20661;-67
2021/06/16 15:26:13;;;;;;;8.43;2.47;;;;;;;;;;5056487;28;20195;-67
2021/06/16 15:28:40;;;;;;;1.83;1.00;;;;;;;;;;5065225;28;20226;-68
2021/06/16 15:31:10;;;;;;;5.73;1.33;;;;;;;;;;5066908;28;20191;-68
2021/06/16 15:33:40;;;;;;;3.77;0.90;;;;;;;;;;5067101;28;20609;-67
2021/06/16 15:36:08;;;;;;;7.30;2.23;;;;;;;;;;5064742;28;20171;-67
2021/06/16 15:38:37;;;;;;;9.33;3.50;;;;;;;;;;5066587;28;20170;-67
2021/06/16 15:41:04;;;;;;;2.43;1.43;;;;;;;;;;5066622;28;20672;-67
2021/06/16 15:43:30;;;;;;;1.33;0.47;;;;;;;;;;5063229;28;20553;-67
2021/06/16 15:45:58;;;;;;;0.00;0.00;;;;;;;;;;5064373;28;20206;-67
2021/06/16 15:48:26;;;;;;;8.00;1.70;;;;;;;;;;5067230;28;20184;-66
2021/06/16 15:51:02;;;;;;;1.93;1.63;;;;;;;;;;5064176;28;20265;-68
2021/06/16 15:53:30;;;;;;;1.40;1.07;;;;;;;;;;5072219;28;20402;-68
2021/06/16 15:55:56;;;;;;;0.00;0.00;;;;;;;;;;5069452;28;20195;-67
2021/06/16 15:58:24;;;;;;;5.20;1.33;;;;;;;;;;5065893;28;20182;-67
2021/06/16 16:00:51;;;;;;;3.07;0.47;;;;;;;;;;5070534;28;20183;-67
2021/06/16 16:03:17;;;;;;;9.43;2.73;;;;;;;;;;5065247;28;20186;-67
2021/06/16 16:05:44;;;;;;;0.10;0.10;;;;;;;;;;5057838;28;20217;-67
2021/06/16 16:08:11;;;;;;;11.90;1.87;;;;;;;;;;5064387;28;20248;-67
2021/06/16 16:10:43;;;;;;;3.30;0.30;;;;;;;;;;5057016;28;20205;-70
2021/06/16 16:13:10;;;;;;;1.53;1.43;;;;;;;;;;5057360;28;20524;-70
2021/06/16 16:15:36;;;;;;;4.80;0.97;;;;;;;;;;5056369;28;20174;-70
2021/06/16 16:18:03;;;;;;;15.37;3.97;;;;;;;;;;5067978;28;20541;-70
2021/06/16 16:20:29;;;;;;;2.63;1.53;;;;;;;;;;5055661;28;20179;-71
2021/06/16 16:22:56;;;;;;;11.07;3.13;;;;;;;;;;5046458;28;20462;-71
2021/06/16 16:25:23;;;;;;;4.73;1.73;;;;;;;;;;5046844;28;20959;-71
2021/06/16 16:27:55;;;;;;;0.77;0.77;;;;;;;;;;5049912;28;20639;-71
2021/06/16 16:30:22;;;;;;;7.70;1.40;;;;;;;;;;5058062;28;20900;-72
2021/06/16 16:32:48;;;;;;;1.67;0.20;;;;;;;;;;5057024;28;20657;-70
2021/06/16 16:35:15;;;;;;;1.43;1.23;;;;;;;;;;5043816;28;20174;-70
2021/06/16 16:37:41;;;;;;;2.63;1.03;;;;;;;;;;5051406;28;20190;-70
2021/06/16 16:40:08;;;;;;;0.00;0.00;;;;;;;;;;5064907;28;20188;-71
2021/06/16 16:42:35;;;;;;;4.20;1.50;;;;;;;;;;5054095;28;20222;-71
2021/06/16 16:45:01;;;;;;;5.97;3.17;;;;;;;;;;5055833;28;20191;-70
2021/06/16 16:47:28;;;;;;;2.53;1.70;;;;;;;;;;5049962;28;20723;-70
2021/06/16 16:49:54;;;;;;;0.87;0.70;;;;;;;;;;5057128;28;20510;-70
2021/06/16 16:52:21;;;;;;;2.80;1.10;;;;;;;;;;5051660;28;20990;-70
2021/06/16 16:54:47;;;;;;;10.63;2.60;;;;;;;;;;5054144;28;20205;-70
2021/06/16 16:57:14;;;;;;;12.43;2.53;;;;;;;;;;5060489;28;20676;-71
2021/06/16 16:59:41;;;;;;;6.47;4.60;;;;;;;;;;5050100;28;20208;-71
2021/06/16 17:02:08;;;;;;;9.60;1.60;;;;;;;;;;5057527;28;20181;-70
2021/06/16 17:04:35;;;;;;;3.90;0.83;;;;;;;;;;5053422;28;20232;-70
2021/06/16 17:07:01;;;;;;;1.50;0.77;;;;;;;;;;5057800;28;20213;-70
2021/06/16 17:09:29;;;;;;;1.60;1.50;;;;;;;;;;5056873;28;20193;-69
2021/06/16 17:11:56;;;;;;;9.07;1.97;;;;;;;;;;5067037;28;20637;-71
2021/06/16 17:14:22;;;;;;;1.07;0.67;;;;;;;;;;5056794;28;20197;-70
2021/06/16 17:16:49;;;;;;;6.17;1.47;;;;;;;;;;5058118;28;20168;-70
2021/06/16 17:19:15;;;;;;;5.00;1.60;;;;;;;;;;5061342;28;20183;-70
2021/06/16 17:21:42;;;;;;;3.50;1.90;;;;;;;;;;5059924;28;20573;-69
2021/06/16 17:24:08;;;;;;;1.30;0.63;;;;;;;;;;5053222;28;20182;-69
2021/06/16 17:26:35;;;;;;;0.20;0.20;;;;;;;;;;5045708;28;20200;-70
2021/06/16 17:29:01;;;;;;;10.13;1.80;;;;;;;;;;5056997;28;20578;-69
2021/06/16 17:31:28;;;;;;;0.00;0.00;;;;;;;;;;5054105;28;20182;-70
2021/06/16 17:33:54;;;;;;;7.93;7.43;;;;;;;;;;5055917;28;20276;-71
2021/06/16 17:36:21;;;;;;;4.83;1.83;;;;;;;;;;5057908;28;20209;-70
2021/06/16 17:38:48;;;;;;;11.60;3.23;;;;;;;;;;5059122;28;20256;-70
2021/06/16 17:41:14;;;;;;;1.43;0.20;;;;;;;;;;5077768;28;20271;-70
2021/06/16 17:43:41;;;;;;;4.10;1.87;;;;;;;;;;5057982;28;20180;-70
2021/06/16 17:46:07;;;;;;;2.27;0.70;;;;;;;;;;5054847;28;20213;-70
2021/06/16 17:48:33;;;;;;;2.13;1.07;;;;;;;;;;5058995;28;20274;-70
2021/06/16 17:51:00;;;;;;;3.40;1.40;;;;;;;;;;5055511;28;20169;-69
2021/06/16 17:53:28;;;;;;;6.63;2.47;;;;;;;;;;5051232;28;20609;-70
2021/06/16 17:55:55;;;;;;;7.30;1.33;;;;;;;;;;5036568;28;20194;-71
2021/06/16 17:58:21;;;;;;;0.50;0.50;;;;;;;;;;5049455;28;20710;-70
2021/06/16 18:00:48;;;;;;;8.57;2.53;;;;;;;;;;5058104;28;20304;-71
2021/06/16 18:03:14;;;;;;;0.00;0.00;;;;;;;;;;5054571;28;20281;-70
2021/06/16 18:05:41;;;;;;;3.57;0.70;;;;;;;;;;5052237;28;20186;-70
2021/06/16 18:08:08;;;;;;;2.23;1.40;;;;;;;;;;5045898;28;20179;-71
2021/06/16 18:10:36;;;;;;;0.87;0.87;;;;;;;;;;5048721;28;20217;-70
2021/06/16 18:13:03;;;;;;;1.80;1.70;;;;;;;;;;5056951;28;20630;-70
2021/06/16 18:15:30;;;;;;;1.17;0.60;;;;;;;;;;5058022;28;20232;-70
2021/06/16 18:17:57;;;;;;;0.50;0.50;;;;;;;;;;5055141;28;20432;-69
2021/06/16 18:20:25;;;;;;;7.73;0.63;;;;;;;;;;5058634;28;20191;-69
2021/06/16 18:22:52;;;;;;;0.20;0.10;;;;;;;;;;5062928;28;20190;-70
2021/06/16 18:25:18;;;;;;;0.63;0.20;;;;;;;;;;5059589;28;20718;-71
2021/06/16 18:27:48;;;;;;;24.83;8.57;;;;;;;;;;5057880;28;20230;-70
2021/06/16 18:30:15;;;;;;;5.47;1.80;;;;;;;;;;5056381;28;20185;-69
2021/06/16 18:32:41;;;;;;;6.87;2.00;;;;;;;;;;5059111;28;20244;-70
2021/06/16 18:35:08;;;;;;;2.23;1.50;;;;;;;;;;5048818;28;20467;-70
2021/06/16 18:37:35;;;;;;;3.00;0.67;;;;;;;;;;5056779;28;20198;-70
2021/06/16 18:40:01;;;;;;;1.10;0.63;;;;;;;;;;5053073;28;20194;-70
2021/06/16 18:42:30;;;;;;;4.17;0.73;;;;;;;;;;5055354;28;20247;-70
2021/06/16 18:44:57;;;;;;;2.67;1.03;;;;;;;;;;5058150;28;20187;-70
2021/06/16 18:47:23;;;;;;;2.73;1.23;;;;;;;;;;5052537;28;20736;-70
2021/06/16 18:49:51;;;;;;;3.87;1.13;;;;;;;;;;5049444;28;20589;-70
2021/06/16 18:52:18;;;;;;;10.93;2.67;;;;;;;;;;5051761;28;20471;-71
2021/06/16 18:54:45;;;;;;;3.57;2.57;;;;;;;;;;5053173;28;20179;-70
2021/06/16 18:57:12;;;;;;;0.53;0.53;;;;;;;;;;5054653;28;20201;-70
2021/06/16 18:59:40;;;;;;;4.90;1.50;;;;;;;;;;5054039;28;20191;-70
2021/06/16 19:02:13;;;;;;;4.80;1.23;;;;;;;;;;5053470;28;20190;-70
2021/06/16 19:07:10;;;;;;;1.20;0.50;;;;;;;;;;5053064;28;20672;-70
2021/06/16 19:09:37;;;;;;;1.23;1.20;;;;;;;;;;5047578;28;20183;-71
2021/06/16 19:12:05;;;;;;;3.20;1.30;;;;;;;;;;5053278;28;20189;-70
2021/06/16 19:14:32;;;;;;;0.10;0.10;;;;;;;;;;5049140;28;20188;-69
2021/06/16 19:16:59;;;;;;;1.67;1.50;;;;;;;;;;5049493;28;20269;-70
2021/06/16 19:19:26;;;;;;;11.87;1.23;;;;;;;;;;5061219;28;20190;-70
2021/06/16 19:21:53;;;;;;;1.73;1.00;;;;;;;;;;5053616;28;20273;-70
2021/06/16 19:24:22;;;;;;;7.27;1.70;;;;;;;;;;5056025;28;20667;-69
2021/06/16 19:26:49;;;;;;;9.00;3.70;;;;;;;;;;5049264;28;20234;-70
2021/06/16 19:29:16;;;;;;;8.97;1.93;;;;;;;;;;5050741;28;20632;-70
2021/06/16 19:31:44;;;;;;;1.30;0.43;;;;;;;;;;5050850;28;20259;-70
2021/06/16 19:34:10;;;;;;;9.03;1.60;;;;;;;;;;5058791;28;20205;-70
2021/06/16 19:36:37;;;;;;;12.87;2.73;;;;;;;;;;5064730;28;20660;-71
2021/06/16 19:39:05;;;;;;;1.10;0.60;;;;;;;;;;5070063;28;20188;-70
2021/06/16 19:41:32;;;;;;;8.83;3.93;;;;;;;;;;5058412;28;20204;-70
2021/06/16 19:43:58;;;;;;;0.57;0.40;;;;;;;;;;5060427;28;20437;-70
2021/06/16 19:46:25;;;;;;;2.37;0.40;;;;;;;;;;5058669;28;20357;-70
2021/06/16 19:48:52;;;;;;;2.80;1.27;;;;;;;;;;5052847;28;20203;-70
2021/06/16 19:51:19;;;;;;;2.70;0.57;;;;;;;;;;5059474;28;20550;-71
2021/06/16 19:53:45;;;;;;;21.73;2.30;;;;;;;;;;5060699;28;20188;-71
2021/06/16 19:56:13;;;;;;;1.70;0.20;;;;;;;;;;5058076;28;20195;-70
2021/06/16 19:58:42;;;;;;;0.20;0.20;;;;;;;;;;5060652;28;20185;-70
2021/06/16 20:01:12;;;;;;;0.73;0.63;;;;;;;;;;5054569;28;20195;-70
2021/06/16 20:03:38;;;;;;;2.93;1.40;;;;;;;;;;5060845;28;20194;-71
2021/06/16 20:06:07;;;;;;;1.60;0.93;;;;;;;;;;5069017;28;20209;-69
2021/06/16 20:08:35;;;;;;;8.30;1.53;;;;;;;;;;5063725;28;20246;-70
2021/06/16 20:11:02;;;;;;;11.17;2.60;;;;;;;;;;5060611;28;20214;-69
2021/06/16 20:13:28;;;;;;;5.40;1.80;;;;;;;;;;5052464;28;20184;-72
2021/06/16 20:15:55;;;;;;;2.77;0.90;;;;;;;;;;5050909;28;20907;-72
2021/06/16 20:18:21;;;;;;;10.47;1.43;;;;;;;;;;5048347;28;20417;-70
2021/06/16 20:20:48;;;;;;;0.00;0.00;;;;;;;;;;5053180;28;20386;-71
2021/06/16 20:23:15;;;;;;;5.60;2.40;;;;;;;;;;5051646;28;20272;-71
2021/06/16 20:25:42;;;;;;;2.27;0.87;;;;;;;;;;5057468;28;20200;-70
2021/06/16 20:28:10;;;;;;;2.03;0.77;;;;;;;;;;5054766;28;20611;-71
2021/06/16 20:30:37;;;;;;;0.57;0.33;;;;;;;;;;5057630;28;20273;-72
2021/06/16 20:33:04;;;;;;;4.50;1.57;;;;;;;;;;5050771;28;20189;-71
2021/06/16 20:35:40;;;;;;;1.17;0.73;;;;;;;;;;5057903;28;20186;-71
2021/06/16 20:38:09;;;;;;;9.40;1.60;;;;;;;;;;5062199;28;21052;-71
2021/06/16 20:40:36;;;;;;;0.20;0.20;;;;;;;;;;5046422;28;20202;-70
2021/06/16 20:43:04;;;;;;;5.53;2.53;;;;;;;;;;5066375;28;20639;-70
2021/06/16 20:45:31;;;;;;;5.63;1.10;;;;;;;;;;5080765;28;20204;-71
2021/06/16 20:47:57;;;;;;;11.77;3.30;;;;;;;;;;5076774;28;20734;-70
2021/06/16 20:50:24;;;;;;;0.10;0.10;;;;;;;;;;5069747;28;20722;-71
2021/06/16 20:52:51;;;;;;;2.13;1.10;;;;;;;;;;5060839;28;20185;-71
2021/06/16 20:55:17;;;;;;;0.10;0.10;;;;;;;;;;5078673;28;20984;-71
2021/06/16 20:57:46;;;;;;;0.10;0.00;;;;;;;;;;5077017;28;20178;-71
2021/06/16 21:00:12;;;;;;;3.20;0.90;;;;;;;;;;5052869;28;20575;-70
2021/06/16 21:02:39;;;;;;;6.13;1.33;;;;;;;;;;5059056;28;20269;-71
2021/06/16 21:05:06;;;;;;;8.03;3.23;;;;;;;;;;5069574;28;20186;-71
2021/06/16 21:07:32;;;;;;;1.87;0.40;;;;;;;;;;5072852;28;20208;-71
2021/06/16 21:09:59;;;;;;;0.63;0.60;;;;;;;;;;5065320;28;20464;-71
2021/06/16 21:12:25;;;;;;;0.00;0.00;;;;;;;;;;5058392;28;20289;-71
2021/06/16 21:14:52;;;;;;;0.40;0.40;;;;;;;;;;5077066;28;20274;-71
2021/06/16 21:17:18;;;;;;;0.87;0.60;;;;;;;;;;5060340;28;20351;-71
2021/06/16 21:19:45;;;;;;;1.90;0.87;;;;;;;;;;5058584;28;20809;-71
2021/06/16 21:22:11;;;;;;;4.67;1.13;;;;;;;;;;5057781;28;20280;-71
2021/06/16 21:24:38;;;;;;;1.70;1.50;;;;;;;;;;5059588;28;20229;-71
2021/06/16 21:27:05;;;;;;;4.10;1.17;;;;;;;;;;5058592;28;20231;-71
2021/06/16 21:29:36;;;;;;;0.70;0.70;;;;;;;;;;5074357;28;20197;-71
2021/06/16 21:32:04;;;;;;;0.20;0.20;;;;;;;;;;5068078;28;20193;-71
2021/06/16 21:34:30;;;;;;;3.80;1.50;;;;;;;;;;5058888;28;20213;-70
2021/06/16 21:36:58;;;;;;;0.63;0.17;;;;;;;;;;5060675;28;20174;-71
2021/06/16 21:39:25;;;;;;;0.10;0.10;;;;;;;;;;5078365;28;20165;-70
2021/06/16 21:41:52;;;;;;;6.33;3.37;;;;;;;;;;5076738;28;20228;-70
2021/06/16 21:44:19;;;;;;;3.60;1.80;;;;;;;;;;5061778;28;20204;-70
2021/06/16 21:46:46;;;;;;;3.70;1.20;;;;;;;;;;5057821;28;20535;-71
2021/06/16 21:49:13;;;;;;;4.33;2.03;;;;;;;;;;5071825;28;20188;-71
2021/06/16 21:51:40;;;;;;;0.67;0.67;;;;;;;;;;5066761;28;20192;-71
2021/06/16 21:54:07;;;;;;;0.00;0.00;;;;;;;;;;5061246;28;20162;-70
2021/06/16 21:56:39;;;;;;;6.07;2.43;;;;;;;;;;5082502;28;20272;-71
2021/06/16 21:59:05;;;;;;;0.40;0.40;;;;;;;;;;5067925;28;20200;-71
2021/06/16 22:01:32;;;;;;;1.43;0.83;;;;;;;;;;5076937;28;20704;-71
2021/06/16 22:03:59;;;;;;;0.90;0.63;;;;;;;;;;5074273;28;20182;-71
2021/06/16 22:06:25;;;;;;;0.00;0.00;;;;;;;;;;5063551;28;20212;-71
2021/06/16 22:08:52;;;;;;;0.00;0.00;;;;;;;;;;5078662;28;20248;-70
2021/06/16 22:11:18;;;;;;;0.20;0.20;;;;;;;;;;5079920;28;20280;-70
2021/06/16 22:13:45;;;;;;;0.00;0.00;;;;;;;;;;5081507;28;20273;-70